Time;durP1;ratioP1;P1;durP2;ratioP2;P2;SDS_P1;SDS_P2;PMS_P1;PMS_P2;Temp;Humidity;BMP_temperature;BMP_pressure;BME280_temperature;BME280_humidity;BME280_pressure;Samples;Min_cycle;Max_cycle;Signal;HPM_P1;HPM_P2
2022/04/22 00:02:39;;;;;;;12.00;10.13;;;;;;;12.63;100.00;100926.16;4996555;28;20029;-73
2022/04/22 00:05:25;;;;;;;12.75;10.00;;;;;;;12.46;100.00;100926.50;4995633;28;20018;-73
2022/04/22 00:08:11;;;;;;;14.57;10.90;;;;;;;12.41;100.00;100931.00;4996022;28;20022;-72
2022/04/22 00:14:03;;;;;;;15.75;11.32;;;;;;;12.21;100.00;100917.41;4996096;28;20026;-73
2022/04/22 00:16:48;;;;;;;16.20;12.35;;;;;;;12.60;100.00;100919.19;4996284;28;20056;-74
2022/04/22 00:19:34;;;;;;;19.23;12.52;;;;;;;12.48;100.00;100924.72;4995415;28;20030;-72
2022/04/22 00:22:20;;;;;;;15.93;11.00;;;;;;;12.14;100.00;100934.19;4980740;28;20031;-73
2022/04/22 00:25:09;;;;;;;11.85;9.90;;;;;;;12.20;100.00;100933.22;4995218;28;20026;-72
2022/04/22 00:27:55;;;;;;;11.88;9.48;;;;;;;12.28;100.00;100942.69;4996123;28;20052;-73
2022/04/22 00:30:41;;;;;;;10.32;8.75;;;;;;;12.56;100.00;100935.94;4995585;28;20088;-73
2022/04/22 00:33:27;;;;;;;10.40;8.48;;;;;;;12.58;100.00;100938.53;4995914;28;20061;-73
2022/04/22 00:36:13;;;;;;;10.30;8.15;;;;;;;12.62;100.00;100938.41;4995676;28;20439;-73
2022/04/22 00:39:01;;;;;;;9.57;7.70;;;;;;;12.71;100.00;100932.09;4994102;28;20378;-73
2022/04/22 00:41:48;;;;;;;10.35;7.88;;;;;;;12.49;100.00;100925.56;4993751;28;20055;-74
2022/04/22 00:44:33;;;;;;;9.73;8.38;;;;;;;12.30;100.00;100930.34;4993982;28;20066;-73
2022/04/22 00:47:19;;;;;;;11.88;8.35;;;;;;;12.52;100.00;100936.03;4980604;28;20041;-73
2022/04/22 00:50:05;;;;;;;12.60;8.10;;;;;;;12.66;100.00;100934.81;4995760;28;20030;-72
2022/04/22 00:52:51;;;;;;;11.48;8.35;;;;;;;12.66;100.00;100939.22;4996174;28;20026;-73
2022/04/22 00:55:41;;;;;;;10.25;8.43;;;;;;;12.71;100.00;100939.97;4995227;28;20022;-74
2022/04/22 00:58:27;;;;;;;10.38;8.40;;;;;;;12.48;100.00;100937.00;4995616;28;20493;-73
2022/04/22 01:01:13;;;;;;;10.80;8.77;;;;;;;12.46;100.00;100931.75;4993766;28;20030;-74
2022/04/22 01:10:08;;;;;;;12.35;8.43;;;;;;;12.54;100.00;100921.09;4993418;28;20030;-73
2022/04/22 01:12:54;;;;;;;11.35;8.82;;;;;;;12.58;100.00;100925.41;4995547;28;20029;-73
2022/04/22 01:15:40;;;;;;;13.00;10.10;;;;;;;12.42;100.00;100921.38;4994814;28;20041;-73
2022/04/22 01:18:26;;;;;;;12.88;10.25;;;;;;;12.24;100.00;100921.75;4994524;28;20026;-72
2022/04/22 01:21:12;;;;;;;11.38;9.27;;;;;;;12.31;100.00;100918.97;4994877;28;20394;-73
2022/04/22 01:23:57;;;;;;;12.93;8.80;;;;;;;12.38;100.00;100911.81;4993747;28;20031;-73
2022/04/22 01:26:45;;;;;;;11.77;9.35;;;;;;;12.44;100.00;100912.56;4980712;28;20030;-73
2022/04/22 01:29:32;;;;;;;9.55;8.43;;;;;;;12.45;100.00;100916.03;4994699;28;20034;-72
2022/04/22 01:32:17;;;;;;;10.30;8.65;;;;;;;12.52;100.00;100908.00;4993837;28;20057;-72
2022/04/22 01:35:03;;;;;;;10.98;7.85;;;;;;;12.64;100.00;100912.97;4993294;28;20109;-73
2022/04/22 01:37:50;;;;;;;9.55;7.93;;;;;;;12.51;100.00;100919.41;4993537;28;20041;-73
2022/04/22 01:40:35;;;;;;;9.93;8.45;;;;;;;12.40;100.00;100907.38;4981135;28;20042;-74
2022/04/22 01:43:21;;;;;;;12.43;8.38;;;;;;;12.62;100.00;100911.28;4995244;28;20090;-72
2022/04/22 01:46:07;;;;;;;9.82;7.80;;;;;;;12.74;100.00;100905.75;4994922;28;20019;-73
2022/04/22 01:48:53;;;;;;;9.57;7.75;;;;;;;12.90;100.00;100904.47;4994799;28;20375;-73
2022/04/22 01:51:39;;;;;;;10.43;7.93;;;;;;;12.87;100.00;100901.91;4993331;28;20147;-73
2022/04/22 01:54:25;;;;;;;11.82;8.05;;;;;;;12.28;100.00;100902.41;4979864;28;20097;-73
2022/04/22 01:57:11;;;;;;;8.85;7.57;;;;;;;12.65;100.00;100898.91;4993681;28;20026;-72
2022/04/22 01:59:59;;;;;;;9.55;8.10;;;;;;;12.67;100.00;100897.13;4993704;28;20026;-73
2022/04/22 02:02:44;;;;;;;12.57;8.13;;;;;;;12.69;100.00;100899.69;4998612;28;20057;-73
2022/04/22 02:05:32;;;;;;;12.57;9.13;;;;;;;12.81;100.00;100888.91;4997964;28;20118;-72
2022/04/22 02:08:19;;;;;;;11.32;8.93;;;;;;;12.63;100.00;100892.84;4996957;28;20105;-74
2022/04/22 02:11:05;;;;;;;12.43;8.63;;;;;;;12.76;100.00;100885.53;4999342;28;20030;-72
2022/04/22 02:13:51;;;;;;;11.43;8.98;;;;;;;12.90;100.00;100883.44;4996707;28;20022;-73
2022/04/22 02:16:36;;;;;;;10.88;9.65;;;;;;;12.88;100.00;100872.97;4998354;28;20034;-73
2022/04/22 02:19:22;;;;;;;16.05;10.52;;;;;;;12.61;100.00;100876.22;4996493;28;20022;-73
2022/04/22 02:22:08;;;;;;;15.20;11.07;;;;;;;12.42;100.00;100860.94;4997900;28;20073;-74
2022/04/22 02:24:56;;;;;;;13.90;10.18;;;;;;;12.79;100.00;100865.31;4997428;28;20033;-73
2022/04/22 02:30:46;;;;;;;14.05;10.02;;;;;;;12.66;100.00;100869.09;4997810;28;20081;-72
2022/04/22 02:33:34;;;;;;;13.65;10.63;;;;;;;12.44;100.00;100870.50;4997414;28;20116;-73
2022/04/22 02:36:19;;;;;;;13.35;10.32;;;;;;;12.57;100.00;100865.81;4997353;28;20100;-73
2022/04/22 02:39:05;;;;;;;13.00;9.95;;;;;;;12.42;100.00;100869.66;4997890;28;20395;-73
2022/04/22 02:48:00;;;;;;;16.08;9.43;;;;;;;12.52;100.00;100870.31;4996150;28;20455;-72
2022/04/22 02:50:45;;;;;;;13.73;9.18;;;;;;;12.50;100.00;100864.25;4983133;28;20030;-73
2022/04/22 02:53:31;;;;;;;10.55;8.80;;;;;;;12.65;100.00;100872.63;4982913;28;20026;-74
2022/04/22 02:56:19;;;;;;;10.55;8.50;;;;;;;12.71;100.00;100869.00;4997584;28;20031;-73
2022/04/22 02:59:05;;;;;;;9.98;8.98;;;;;;;12.36;100.00;100864.56;4997460;28;20034;-73
2022/04/22 03:01:51;;;;;;;10.00;8.70;;;;;;;12.45;100.00;100877.47;4983899;28;20178;-73
2022/04/22 03:04:37;;;;;;;10.68;9.05;;;;;;;12.60;100.00;100869.25;4997436;28;20022;-73
2022/04/22 03:07:23;;;;;;;12.38;9.10;;;;;;;12.04;100.00;100866.13;4995376;28;20360;-73
2022/04/22 03:10:08;;;;;;;12.30;9.68;;;;;;;11.61;100.00;100866.13;4997520;28;20113;-74
2022/04/22 03:12:54;;;;;;;12.23;9.70;;;;;;;11.22;100.00;100856.38;4996380;28;20019;-72
2022/04/22 03:15:41;;;;;;;16.00;9.90;;;;;;;10.72;100.00;100856.34;4995561;28;20034;-74
2022/04/22 03:18:27;;;;;;;13.93;10.43;;;;;;;10.77;100.00;100862.38;4995518;28;20042;-73
2022/04/22 03:21:13;;;;;;;14.90;11.30;;;;;;;10.94;100.00;100851.63;4996693;28;20426;-74
2022/04/22 03:23:59;;;;;;;15.30;11.77;;;;;;;11.04;100.00;100858.41;4982744;28;20034;-73
2022/04/22 03:26:45;;;;;;;23.52;16.02;;;;;;;10.99;100.00;100865.50;4996753;28;20030;-73
2022/04/22 03:29:30;;;;;;;25.65;17.35;;;;;;;11.08;100.00;100862.72;4996655;28;20367;-73
2022/04/22 03:32:16;;;;;;;29.65;18.77;;;;;;;11.09;100.00;100859.22;4996313;28;20073;-73
2022/04/22 03:35:02;;;;;;;24.67;19.60;;;;;;;10.81;100.00;100855.34;4996683;28;20030;-73
2022/04/22 03:37:48;;;;;;;23.02;17.75;;;;;;;10.69;100.00;100851.16;4997111;28;20054;-72
2022/04/22 03:40:33;;;;;;;21.67;17.05;;;;;;;10.75;100.00;100858.03;4996423;28;20045;-73
2022/04/22 03:43:22;;;;;;;20.05;16.00;;;;;;;11.07;100.00;100854.00;4996086;28;20030;-73
2022/04/22 03:46:07;;;;;;;24.27;17.02;;;;;;;10.92;100.00;100856.88;4996882;28;20022;-73
2022/04/22 03:48:55;;;;;;;25.30;16.45;;;;;;;10.79;100.00;100860.59;4995996;28;20348;-74
2022/04/22 03:51:42;;;;;;;23.17;17.27;;;;;;;11.05;100.00;100860.19;4982483;28;20089;-73
2022/04/22 03:54:28;;;;;;;27.35;19.40;;;;;;;11.19;100.00;100858.16;4995874;28;20038;-73
2022/04/22 04:00:18;;;;;;;33.13;24.98;;;;;;;10.93;100.00;100861.22;4996348;28;20031;-73
2022/04/22 04:03:04;;;;;;;32.47;23.58;;;;;;;10.79;100.00;100855.38;4995965;28;20026;-73
2022/04/22 04:05:51;;;;;;;31.30;23.63;;;;;;;10.67;100.00;100859.91;4996096;28;20084;-73
2022/04/22 04:08:36;;;;;;;31.58;23.05;;;;;;;10.84;100.00;100873.66;4996390;28;20030;-73
2022/04/22 04:17:35;;;;;;;33.03;21.35;;;;;;;11.35;100.00;100870.13;4995966;28;20026;-74
2022/04/22 04:23:25;;;;;;;28.25;19.88;;;;;;;12.25;100.00;100855.16;4995026;28;20447;-73
2022/04/22 04:26:12;;;;;;;26.40;19.65;;;;;;;12.45;100.00;100856.47;4995508;28;20029;-73
2022/04/22 04:28:58;;;;;;;26.83;19.83;;;;;;;12.76;100.00;100868.00;4995495;28;20023;-72
2022/04/22 04:31:44;;;;;;;30.25;20.75;;;;;;;12.63;100.00;100853.44;4995050;28;20464;-73
2022/04/22 04:34:30;;;;;;;33.35;23.92;;;;;;;12.91;100.00;100854.44;4981591;28;20149;-73
2022/04/22 04:37:16;;;;;;;32.80;20.58;;;;;;;12.76;100.00;100852.22;4995571;28;20426;-74
2022/04/22 04:40:02;;;;;;;31.52;20.02;;;;;;;13.08;100.00;100848.81;4995520;28;20030;-73
2022/04/22 04:42:47;;;;;;;30.15;19.52;;;;;;;13.21;100.00;100845.84;4994960;28;20088;-73
2022/04/22 04:45:36;;;;;;;27.33;19.02;;;;;;;13.51;100.00;100852.06;4995258;28;20065;-73
2022/04/22 04:48:22;;;;;;;30.95;17.58;;;;;;;13.65;100.00;100842.88;4967630;28;20030;-71
2022/04/22 04:51:08;;;;;;;24.85;17.08;;;;;;;13.57;100.00;100843.97;4995247;28;20018;-72
2022/04/22 04:53:56;;;;;;;32.25;18.45;;;;;;;13.57;100.00;100838.72;4995410;28;20037;-72
2022/04/22 04:56:42;;;;;;;26.35;15.82;;;;;;;13.46;100.00;100841.63;4995771;28;20026;-73
2022/04/22 04:59:28;;;;;;;23.30;13.85;;;;;;;13.69;100.00;100841.00;4995993;28;20038;-73
2022/04/22 05:02:14;;;;;;;17.90;13.00;;;;;;;13.89;100.00;100831.63;4995085;28;20360;-73
2022/04/22 05:04:59;;;;;;;19.55;13.05;;;;;;;13.89;100.00;100831.63;4994796;28;20367;-73
2022/04/22 05:07:59;;;;;;;18.42;11.93;;;;;;;14.07;100.00;100839.00;4995030;28;20117;-72
2022/04/22 05:10:45;;;;;;;16.27;12.18;;;;;;;13.89;100.00;100843.94;4995368;28;20140;-74
2022/04/22 05:13:30;;;;;;;13.48;10.82;;;;;;;13.84;100.00;100856.38;4994680;28;20074;-74
2022/04/22 05:16:16;;;;;;;15.35;10.32;;;;;;;14.14;100.00;100856.34;4994700;28;20038;-73
2022/04/22 05:19:02;;;;;;;13.93;10.05;;;;;;;14.39;100.00;100857.34;4994398;28;20030;-75
2022/04/22 05:21:48;;;;;;;14.88;10.30;;;;;;;14.43;100.00;100864.25;4995217;28;20038;-74
2022/04/22 05:24:37;;;;;;;18.00;11.35;;;;;;;14.49;100.00;100866.72;4994613;28;20077;-73
2022/04/22 05:27:25;;;;;;;19.70;11.90;;;;;;;14.09;100.00;100875.84;4994525;28;20022;-74
2022/04/22 05:33:17;;;;;;;29.65;18.98;;;;;;;14.11;100.00;100892.47;4995146;28;20023;-73
2022/04/22 05:36:04;;;;;;;30.17;19.90;;;;;;;14.15;100.00;100894.13;4998405;28;20037;-74
2022/04/22 05:38:52;;;;;;;28.08;18.90;;;;;;;14.02;100.00;100895.34;4997443;28;20030;-73
2022/04/22 05:41:38;;;;;;;31.40;22.13;;;;;;;13.73;100.00;100884.78;4984694;28;20367;-74
2022/04/22 05:44:24;;;;;;;28.52;20.83;;;;;;;13.70;100.00;100891.00;4999053;28;20443;-75
2022/04/22 05:47:10;;;;;;;27.38;19.08;;;;;;;13.60;100.00;100881.63;4999169;28;20034;-73
2022/04/22 05:49:55;;;;;;;26.40;18.95;;;;;;;13.59;100.00;100874.63;4999235;28;20030;-73
2022/04/22 05:52:42;;;;;;;25.73;19.05;;;;;;;13.62;100.00;100866.66;4999270;28;20030;-73
2022/04/22 05:55:28;;;;;;;24.85;19.95;;;;;;;13.45;100.00;100874.13;4998201;28;20395;-74
2022/04/22 05:58:14;;;;;;;30.48;19.48;;;;;;;13.48;100.00;100884.59;4984673;28;20039;-74
2022/04/22 06:01:00;;;;;;;27.10;18.83;;;;;;;13.44;100.00;100876.81;4997927;28;20022;-74
2022/04/22 06:03:45;;;;;;;25.35;19.83;;;;;;;13.13;100.00;100878.50;4998158;28;20049;-72
2022/04/22 06:06:31;;;;;;;36.83;24.52;;;;;;;13.01;100.00;100853.38;4997808;28;20022;-73
2022/04/22 06:12:21;;;;;;;33.10;24.42;;;;;;;13.05;100.00;100910.25;4998252;28;20022;-75
2022/04/22 06:15:07;;;;;;;36.63;23.33;;;;;;;12.97;100.00;100911.31;4997851;28;20034;-74
2022/04/22 06:17:53;;;;;;;29.20;21.15;;;;;;;13.00;100.00;100924.41;4997773;28;20026;-74
2022/04/22 06:20:39;;;;;;;27.65;19.55;;;;;;;13.04;100.00;100937.47;4997768;28;20065;-74
2022/04/22 06:23:25;;;;;;;28.33;19.58;;;;;;;13.27;100.00;100953.53;4997647;28;20030;-73
2022/04/22 06:26:10;;;;;;;27.33;18.42;;;;;;;12.92;100.00;100987.69;4997807;28;20018;-72
2022/04/22 06:28:56;;;;;;;22.42;16.60;;;;;;;12.79;100.00;100996.75;4997731;28;20030;-74
2022/04/22 06:31:42;;;;;;;20.50;16.33;;;;;;;12.94;100.00;101000.81;4997552;28;20069;-72
2022/04/22 06:34:28;;;;;;;17.80;14.43;;;;;;;12.63;100.00;100998.00;4984498;28;20455;-73
2022/04/22 06:37:14;;;;;;;18.83;14.60;;;;;;;12.61;100.00;100994.50;4997323;28;20379;-73
2022/04/22 06:46:16;;;;;;;22.20;16.67;;;;;;;12.91;100.00;100993.00;4997671;28;20037;-74
2022/04/22 06:49:02;;;;;;;17.60;13.73;;;;;;;12.73;100.00;100999.50;4997431;28;20023;-73
2022/04/22 06:51:48;;;;;;;21.90;14.35;;;;;;;12.90;100.00;100997.38;4997510;28;20038;-74
2022/04/22 06:54:36;;;;;;;18.13;13.68;;;;;;;13.12;100.00;101003.91;4997747;28;20033;-74
2022/04/22 06:57:23;;;;;;;19.67;14.82;;;;;;;13.29;100.00;100996.50;4997323;28;20027;-73
2022/04/22 07:00:10;;;;;;;18.70;15.10;;;;;;;13.08;100.00;100990.88;4997604;28;20459;-74
2022/04/22 07:02:57;;;;;;;20.23;15.70;;;;;;;13.11;100.00;100985.53;4997202;28;20455;-73
2022/04/22 07:05:47;;;;;;;26.40;18.95;;;;;;;13.17;100.00;100986.25;4983492;28;20026;-74
2022/04/22 07:08:32;;;;;;;28.15;20.30;;;;;;;12.97;100.00;100987.56;4984054;28;20371;-73
2022/04/22 07:11:24;;;;;;;24.67;17.30;;;;;;;12.88;100.00;100980.78;4997120;28;20053;-74
2022/04/22 07:14:11;;;;;;;22.70;17.10;;;;;;;13.04;100.00;100976.94;4996884;28;20030;-74
2022/04/22 07:16:57;;;;;;;43.03;27.52;;;;;;;13.44;100.00;100967.16;4983457;28;20100;-74
2022/04/22 07:19:43;;;;;;;34.95;24.33;;;;;;;13.49;100.00;100964.41;4997044;28;20076;-74
2022/04/22 07:22:29;;;;;;;26.65;20.95;;;;;;;13.58;100.00;100970.31;4997929;28;20041;-74
2022/04/22 07:25:16;;;;;;;25.65;20.92;;;;;;;13.29;100.00;100970.19;4996678;28;20438;-74
2022/04/22 07:28:04;;;;;;;25.83;21.95;;;;;;;13.84;100.00;100974.91;4997047;28;20363;-75
2022/04/22 07:30:50;;;;;;;24.40;19.55;;;;;;;13.94;100.00;100976.34;4996219;28;20050;-76
2022/04/22 07:33:36;;;;;;;23.60;18.27;;;;;;;13.95;100.00;100968.41;4996579;28;20037;-75
2022/04/22 07:36:22;;;;;;;21.23;15.98;;;;;;;14.11;100.00;100953.06;4998140;28;20026;-75
2022/04/22 07:39:08;;;;;;;25.48;17.25;;;;;;;14.20;100.00;100939.63;4998192;28;20042;-76
2022/04/22 07:41:56;;;;;;;23.30;18.25;;;;;;;13.95;100.00;100931.53;4996892;28;20423;-75
2022/04/22 07:47:51;;;;;;;40.30;30.83;;;;;;;13.86;100.00;100921.28;4997948;28;20113;-75
2022/04/22 07:50:37;;;;;;;38.97;29.33;;;;;;;14.05;100.00;100913.72;4997598;28;20339;-76
2022/04/22 07:53:23;;;;;;;28.45;19.23;;;;;;;14.27;100.00;100905.16;4997099;28;20057;-77
2022/04/22 07:56:08;;;;;;;27.13;19.45;;;;;;;14.43;100.00;100900.34;4996664;28;20141;-75
2022/04/22 07:58:56;;;;;;;25.27;17.52;;;;;;;14.73;100.00;100884.41;4981517;28;20439;-74
2022/04/22 08:01:41;;;;;;;22.80;16.73;;;;;;;15.17;100.00;100884.72;4981429;28;20117;-73
2022/04/22 08:04:27;;;;;;;16.30;13.05;;;;;;;14.70;100.00;100878.34;4995692;28;20451;-75
2022/04/22 08:07:15;;;;;;;16.58;12.13;;;;;;;15.27;100.00;100857.13;4995704;28;20087;-75
2022/04/22 08:10:01;;;;;;;15.98;11.73;;;;;;;15.46;100.00;100860.88;4995703;28;20069;-74
2022/04/22 08:12:47;;;;;;;14.32;11.30;;;;;;;15.16;100.00;100854.84;4995597;28;20034;-74
2022/04/22 08:15:34;;;;;;;15.02;11.95;;;;;;;14.96;100.00;100852.03;4994914;28;20042;-75
2022/04/22 08:18:19;;;;;;;14.68;10.88;;;;;;;15.68;100.00;100835.44;4982028;28;20092;-74
2022/04/22 08:21:07;;;;;;;13.27;10.43;;;;;;;15.78;100.00;100836.81;4995445;28;20066;-74
2022/04/22 08:23:52;;;;;;;14.68;11.15;;;;;;;16.16;100.00;100810.66;4995276;28;20046;-74
2022/04/22 08:26:39;;;;;;;15.45;12.32;;;;;;;16.07;100.00;100807.53;4981015;28;20073;-74
2022/04/22 08:29:25;;;;;;;15.68;11.50;;;;;;;16.51;100.00;100799.59;4995629;28;20040;-76
2022/04/22 08:32:11;;;;;;;14.23;11.60;;;;;;;16.38;100.00;100789.53;4995592;28;20471;-74
2022/04/22 08:34:57;;;;;;;12.65;9.98;;;;;;;16.26;100.00;100790.88;4981774;28;20030;-74
2022/04/22 08:37:45;;;;;;;10.98;9.38;;;;;;;16.55;100.00;100805.63;4978215;28;20050;-75
2022/04/22 08:40:34;;;;;;;9.70;8.13;;;;;;;16.68;100.00;100809.50;4981264;28;20030;-73
2022/04/22 08:43:20;;;;;;;13.73;10.20;;;;;;;16.72;100.00;100800.50;4980582;28;20061;-76
2022/04/22 08:52:23;;;;;;;21.95;16.17;;;;;;;16.95;100.00;100810.97;4993978;28;20030;-74
2022/04/22 08:55:10;;;;;;;11.00;9.48;;;;;;;16.62;100.00;100802.66;4994867;28;20023;-75
2022/04/22 08:57:56;;;;;;;13.35;9.98;;;;;;;16.79;100.00;100794.03;4994276;28;20034;-74
2022/04/22 09:00:44;;;;;;;15.02;11.70;;;;;;;17.66;100.00;100796.38;4995301;28;20525;-74
2022/04/22 09:03:29;;;;;;;12.95;9.93;;;;;;;17.74;100.00;100794.25;4981098;28;20030;-75
2022/04/22 09:06:28;;;;;;;17.67;10.63;;;;;;;17.59;100.00;100786.13;4996612;28;20030;-73
2022/04/22 09:09:20;;;;;;;11.18;8.30;;;;;;;17.23;100.00;100772.69;4996871;28;20109;-74
2022/04/22 09:12:11;;;;;;;10.05;7.80;;;;;;;17.73;100.00;100778.41;4996123;28;20030;-73
2022/04/22 09:15:00;;;;;;;11.35;8.05;;;;;;;18.31;100.00;100775.63;4982388;28;20121;-75
2022/04/22 09:17:48;;;;;;;10.05;7.38;;;;;;;18.14;100.00;100772.91;4981038;28;20030;-75
2022/04/22 09:21:11;;;;;;;11.07;7.68;;;;;;;18.23;100.00;100763.63;4996666;28;20482;-77
2022/04/22 09:24:10;;;;;;;11.85;8.02;;;;;;;19.26;100.00;100764.66;4993473;28;20037;-73
2022/04/22 09:27:06;;;;;;;13.70;7.78;;;;;;;18.11;100.00;100762.44;4995875;28;20041;-72
2022/04/22 09:29:54;;;;;;;11.10;7.47;;;;;;;18.59;100.00;100756.59;4980115;28;20431;-72
2022/04/22 09:32:43;;;;;;;11.77;7.22;;;;;;;18.53;100.00;100751.59;4993454;28;20070;-73
2022/04/22 09:42:37;;;;;;;10.32;6.85;;;;;;;18.21;100.00;100758.41;4994327;28;20037;-73
2022/04/22 09:44:46;;;;;;;9.93;7.47;;;;;;;18.86;100.00;100736.63;4993350;28;20026;-72
2022/04/22 09:47:33;;;;;;;97.30;65.82;;;;;;;18.65;100.00;100732.41;4995133;28;20070;-72
2022/04/22 09:50:37;;;;;;;22.25;14.73;;;;;;;19.00;100.00;100744.72;4994658;28;20034;-72
2022/04/22 09:53:33;;;;;;;11.73;6.75;;;;;;;18.85;100.00;100740.22;4994079;28;20105;-73
2022/04/22 09:56:19;;;;;;;13.02;6.55;;;;;;;18.28;100.00;100724.50;4981552;28;20061;-72
2022/04/22 09:59:25;;;;;;;12.07;7.68;;;;;;;18.45;100.00;100722.75;4993129;28;20041;-73
2022/04/22 10:02:17;;;;;;;13.02;7.35;;;;;;;18.29;100.00;100719.09;4993450;28;20081;-72
2022/04/22 10:05:04;;;;;;;9.15;6.05;;;;;;;18.96;100.00;100706.00;4994809;28;20034;-75
2022/04/22 10:07:55;;;;;;;11.82;6.53;;;;;;;18.83;100.00;100719.06;4992790;28;20030;-72
2022/04/22 10:10:42;;;;;;;8.93;6.10;;;;;;;19.26;100.00;100730.13;4981608;28;20036;-74
2022/04/22 10:13:40;;;;;;;8.68;5.68;;;;;;;18.98;100.00;100723.56;4993045;28;20033;-73
2022/04/22 10:16:27;;;;;;;10.30;5.57;;;;;;;19.00;100.00;100712.84;4980711;28;20408;-73
2022/04/22 10:19:13;;;;;;;15.25;6.00;;;;;;;19.43;100.00;100712.34;4980186;28;20084;-73
2022/04/22 10:22:00;;;;;;;13.63;6.00;;;;;;;19.27;100.00;100719.44;4996791;28;20526;-74
2022/04/22 10:24:49;;;;;;;9.18;5.50;;;;;;;19.84;100.00;100713.59;4998079;28;20026;-74
2022/04/22 10:27:37;;;;;;;9.90;5.63;;;;;;;19.79;100.00;100702.38;4983386;28;20383;-75
2022/04/22 10:30:24;;;;;;;14.10;6.20;;;;;;;19.57;100.00;100698.31;4997156;28;20133;-74
2022/04/22 10:33:11;;;;;;;11.43;5.80;;;;;;;20.12;100.00;100697.84;4998246;28;20533;-73
2022/04/22 10:36:01;;;;;;;13.70;5.80;;;;;;;20.27;100.00;100706.75;4998014;28;20030;-72
2022/04/22 10:38:48;;;;;;;12.52;7.60;;;;;;;20.58;100.00;100701.38;4983117;28;20117;-74
2022/04/22 10:41:46;;;;;;;13.35;5.93;;;;;;;20.12;100.00;100708.50;4996994;28;20030;-75
2022/04/22 10:47:39;;;;;;;12.85;5.78;;;;;;;20.36;100.00;100701.78;4995993;28;20050;-72
2022/04/22 10:50:26;;;;;;;12.55;5.80;;;;;;;21.04;100.00;100697.72;4997060;28;20040;-74
2022/04/22 10:53:27;;;;;;;14.45;5.15;;;;;;;20.96;100.00;100700.88;4997698;28;20026;-74
2022/04/22 10:56:32;;;;;;;14.48;5.07;;;;;;;20.82;100.00;100679.47;4996155;28;20026;-76
2022/04/22 10:59:21;;;;;;;18.45;5.07;;;;;;;21.07;100.00;100682.44;4995896;28;20019;-74
2022/04/22 11:02:26;;;;;;;12.38;4.70;;;;;;;21.17;100.00;100672.91;4997931;28;20037;-74
2022/04/22 11:05:20;;;;;;;17.98;4.97;;;;;;;20.78;100.00;100677.94;4997158;28;20498;-74
2022/04/22 11:08:07;;;;;;;18.88;5.10;;;;;;;21.63;100.00;100681.56;4997328;28;20058;-74
2022/04/22 11:10:53;;;;;;;14.82;4.97;;;;;;;21.52;100.00;100676.91;4995671;28;20088;-74
2022/04/22 11:13:44;;;;;;;15.68;4.50;;;;;;;21.50;100.00;100677.97;4997102;28;20030;-73
2022/04/22 11:16:29;;;;;;;18.45;4.47;;;;;;;21.76;100.00;100680.72;4995486;28;20355;-73
2022/04/22 11:19:18;;;;;;;17.80;4.38;;;;;;;21.91;100.00;100686.88;4982601;28;20547;-75
2022/04/22 11:22:07;;;;;;;16.17;4.22;;;;;;;21.85;100.00;100682.78;4997512;28;20073;-73
2022/04/22 11:24:56;;;;;;;19.33;5.45;;;;;;;22.13;100.00;100679.19;4995774;28;20030;-74
2022/04/22 11:27:42;;;;;;;14.02;4.55;;;;;;;22.22;100.00;100674.09;4982752;28;20022;-74
2022/04/22 11:30:28;;;;;;;24.88;4.80;;;;;;;22.43;100.00;100667.31;4996412;28;20050;-75
2022/04/22 11:33:24;;;;;;;15.73;4.07;;;;;;;22.85;100.00;100664.47;4996662;28;20050;-73
2022/04/22 11:36:10;;;;;;;18.35;4.35;;;;;;;22.40;100.00;100661.34;4996725;28;20054;-74
2022/04/22 11:38:56;;;;;;;15.63;4.95;;;;;;;22.38;100.00;100650.78;4995890;28;20034;-74
2022/04/22 11:41:55;;;;;;;23.17;4.50;;;;;;;22.17;100.00;100651.34;4995017;28;20077;-74
2022/04/22 11:44:42;;;;;;;17.10;4.38;;;;;;;22.85;99.70;100642.22;4995116;28;20022;-74
2022/04/22 11:47:28;;;;;;;12.45;4.20;;;;;;;22.67;98.50;100633.66;4995695;28;20061;-74
2022/04/22 11:50:21;;;;;;;13.82;4.10;;;;;;;23.10;92.85;100621.72;4981889;28;20022;-73
2022/04/22 11:53:19;;;;;;;15.57;4.15;;;;;;;22.50;97.42;100615.28;4995984;28;20084;-74
2022/04/22 11:56:04;;;;;;;12.13;4.63;;;;;;;22.27;100.00;100604.41;4995156;28;20030;-74
2022/04/22 11:58:55;;;;;;;16.98;4.22;;;;;;;22.57;98.92;100589.88;4995273;28;20079;-73
2022/04/22 12:08:04;;;;;;;18.73;4.18;;;;;;;22.42;94.15;100606.88;4995523;28;20100;-73
2022/04/22 12:10:50;;;;;;;17.95;4.00;;;;;;;22.92;92.00;100598.97;4994782;28;20405;-73
2022/04/22 12:13:41;;;;;;;16.20;3.90;;;;;;;22.63;92.19;100610.78;4994444;28;20026;-74
2022/04/22 12:16:27;;;;;;;18.42;3.97;;;;;;;21.82;97.17;100612.78;4996213;28;20033;-73
2022/04/22 12:19:15;;;;;;;13.38;4.38;;;;;;;22.09;98.65;100593.16;4995871;28;20040;-74
2022/04/22 12:22:00;;;;;;;11.68;4.22;;;;;;;21.93;99.33;100573.78;4996275;28;20470;-74
2022/04/22 12:25:19;;;;;;;17.80;4.90;;;;;;;22.19;97.44;100602.22;4995792;28;20030;-74
2022/04/22 12:28:11;;;;;;;14.10;3.60;;;;;;;22.39;96.72;100601.75;4978244;28;20455;-74
2022/04/22 12:30:57;;;;;;;11.77;3.70;;;;;;;22.89;92.70;100592.97;4994370;28;20376;-74
2022/04/22 12:33:43;;;;;;;13.02;3.95;;;;;;;22.93;93.35;100583.78;4994411;28;20443;-74
2022/04/22 12:36:33;;;;;;;27.27;14.98;;;;;;;22.81;94.11;100577.47;4995705;28;20030;-74
2022/04/22 12:39:33;;;;;;;27.77;15.70;;;;;;;22.07;100.00;100573.69;4981938;28;20494;-73
2022/04/22 12:42:22;;;;;;;20.38;5.38;;;;;;;22.69;99.28;100556.97;4994852;28;20034;-75
2022/04/22 12:54:35;;;;;;;13.57;3.92;;;;;;;22.50;98.20;100505.78;4993605;28;20033;-74
2022/04/22 12:57:25;;;;;;;23.02;4.95;;;;;;;22.25;98.83;100497.75;4995993;28;20463;-73
2022/04/22 13:00:16;;;;;;;15.55;3.78;;;;;;;22.85;96.45;100493.47;4993655;28;20042;-74
2022/04/22 13:03:03;;;;;;;12.30;3.92;;;;;;;22.69;97.54;100487.50;4993963;28;20031;-74
2022/04/22 13:05:49;;;;;;;17.08;4.20;;;;;;;22.76;98.52;100479.91;4993949;28;20438;-74
2022/04/22 13:08:35;;;;;;;17.98;4.35;;;;;;;22.36;100.00;100473.84;4994086;28;20030;-74
2022/04/22 13:11:22;;;;;;;18.10;3.92;;;;;;;22.93;100.00;100463.53;4995499;28;20109;-73
2022/04/22 13:14:12;;;;;;;14.77;4.07;;;;;;;23.26;98.53;100455.75;4993534;28;20057;-74
2022/04/22 13:16:58;;;;;;;22.73;4.25;;;;;;;22.71;96.64;100463.38;4981005;28;20035;-74
2022/04/22 13:19:43;;;;;;;17.45;4.32;;;;;;;22.73;88.03;100464.97;4980897;28;20030;-74
2022/04/22 13:22:29;;;;;;;20.88;7.30;;;;;;;22.53;82.68;100456.66;4981793;28;20045;-74
2022/04/22 13:25:17;;;;;;;15.82;8.30;;;;;;;22.33;82.77;100449.16;4994653;28;20049;-73
2022/04/22 13:28:03;;;;;;;13.57;3.42;;;;;;;22.61;81.41;100455.16;4994643;28;20069;-76
2022/04/22 13:30:49;;;;;;;14.65;4.25;;;;;;;22.69;81.84;100465.28;4994793;28;20046;-74
2022/04/22 13:33:35;;;;;;;11.88;3.85;;;;;;;22.55;82.32;100450.22;4980871;28;20028;-73
2022/04/22 13:36:21;;;;;;;14.68;3.97;;;;;;;22.87;81.80;100453.28;4979977;28;20050;-73
2022/04/22 13:39:06;;;;;;;13.68;3.67;;;;;;;22.75;81.75;100451.50;4994536;28;20030;-74
2022/04/22 13:41:52;;;;;;;12.52;3.95;;;;;;;22.49;86.23;100448.00;4995792;28;20026;-74
2022/04/22 13:53:51;;;;;;;13.27;5.05;;;;;;;22.11;92.94;100420.44;4993243;28;20053;-75
2022/04/22 13:56:37;;;;;;;15.52;5.30;;;;;;;22.63;91.17;100405.13;4984010;28;20030;-73
2022/04/22 13:59:22;;;;;;;15.98;5.20;;;;;;;22.45;90.47;100394.88;4998838;28;20113;-74
2022/04/22 14:02:08;;;;;;;11.10;4.47;;;;;;;22.66;88.05;100388.03;4985466;28;20387;-74
2022/04/22 14:04:54;;;;;;;11.35;3.88;;;;;;;22.84;89.52;100395.59;4998506;28;20080;-77
2022/04/22 14:07:40;;;;;;;19.70;5.72;;;;;;;22.70;89.39;100398.41;4996901;28;20018;-74